Observations

79.5 °F / 26.4 °C
ENE at 17 MPH
74%
70.5°F / 21.4 °C
29.73" (1006 mb)
10 mile(s)
partly cloudy
2022.01.18 1640 UTC

Observations

Surface


Raw METARs

2022/01/18 16:40
PKWA 181640Z AUTO 07015KT 10SM SCT026 SCT033 26/21 A2973 RMK AO2 T02640214

Translated METAR

Kwajalein, Bucholz AAF, Kwajalein KMR ATOL Airport, Marshall Islands (PKWA) 08-43N 167-44E 2M
Jan 18, 2022 - 11:40 AM EST / 2022.01.18 1640 UTC
Wind: from the ENE (070 degrees) at 17 MPH (15 KT):0
Visibility: 10 mile(s):0
Sky conditions: partly cloudy
Temperature: 79.5 F (26.4 C)
Dew Point: 70.5 F (21.4 C)
Relative Humidity: 74%
Pressure (altimeter): 29.73 in. Hg (1006 hPa)
ob: PKWA 181640Z AUTO 07015KT 10SM SCT026 SCT033 26/21 A2973 RMK AO2 T02640214
cycle: 16



Upper Air


Latest Skew-T

Skew T Diagram

Latest Data File